sensor_id;sensor_type;location;lat;lon;timestamp;P1;durP1;ratioP1;P2;durP2;ratioP2
59512;SDS011;45330;51.634;5.562;2023-03-17T00:01:09;7.80;;;3.05;;
59512;SDS011;45330;51.634;5.562;2023-03-17T00:03:36;8.48;;;3.25;;
59512;SDS011;45330;51.634;5.562;2023-03-17T00:06:04;9.70;;;3.17;;
59512;SDS011;45330;51.634;5.562;2023-03-17T00:08:31;7.55;;;3.00;;
59512;SDS011;45330;51.634;5.562;2023-03-17T00:10:58;10.93;;;3.40;;
59512;SDS011;45330;51.634;5.562;2023-03-17T00:13:24;7.43;;;3.30;;
59512;SDS011;45330;51.634;5.562;2023-03-17T00:15:51;6.38;;;2.97;;
59512;SDS011;45330;51.634;5.562;2023-03-17T00:18:19;7.75;;;3.00;;
59512;SDS011;45330;51.634;5.562;2023-03-17T00:20:46;8.98;;;3.28;;
59512;SDS011;45330;51.634;5.562;2023-03-17T00:23:13;6.50;;;2.70;;
59512;SDS011;45330;51.634;5.562;2023-03-17T00:25:41;7.40;;;3.00;;
59512;SDS011;45330;51.634;5.562;2023-03-17T00:28:20;7.20;;;3.05;;
59512;SDS011;45330;51.634;5.562;2023-03-17T00:30:48;6.68;;;3.00;;
59512;SDS011;45330;51.634;5.562;2023-03-17T00:33:18;8.93;;;3.05;;
59512;SDS011;45330;51.634;5.562;2023-03-17T00:35:47;9.02;;;2.95;;
59512;SDS011;45330;51.634;5.562;2023-03-17T00:38:13;7.82;;;2.90;;
59512;SDS011;45330;51.634;5.562;2023-03-17T00:40:41;8.60;;;3.00;;
59512;SDS011;45330;51.634;5.562;2023-03-17T00:43:07;6.25;;;2.78;;
59512;SDS011;45330;51.634;5.562;2023-03-17T00:45:32;8.43;;;3.10;;
59512;SDS011;45330;51.634;5.562;2023-03-17T00:47:58;6.60;;;2.78;;
59512;SDS011;45330;51.634;5.562;2023-03-17T00:50:25;6.20;;;2.85;;
59512;SDS011;45330;51.634;5.562;2023-03-17T00:52:53;7.93;;;3.20;;
59512;SDS011;45330;51.634;5.562;2023-03-17T00:55:20;8.25;;;2.92;;
59512;SDS011;45330;51.634;5.562;2023-03-17T00:57:47;6.90;;;2.72;;
59512;SDS011;45330;51.634;5.562;2023-03-17T01:02:50;8.05;;;3.20;;
59512;SDS011;45330;51.634;5.562;2023-03-17T01:05:18;6.57;;;3.08;;
59512;SDS011;45330;51.634;5.562;2023-03-17T01:07:45;10.07;;;3.47;;
59512;SDS011;45330;51.634;5.562;2023-03-17T01:10:17;8.27;;;3.63;;
59512;SDS011;45330;51.634;5.562;2023-03-17T01:15:13;9.57;;;3.00;;
59512;SDS011;45330;51.634;5.562;2023-03-17T01:17:40;5.10;;;2.90;;
59512;SDS011;45330;51.634;5.562;2023-03-17T01:20:06;9.77;;;3.13;;
59512;SDS011;45330;51.634;5.562;2023-03-17T01:22:35;8.55;;;3.05;;
59512;SDS011;45330;51.634;5.562;2023-03-17T01:25:00;5.65;;;3.08;;
59512;SDS011;45330;51.634;5.562;2023-03-17T01:27:27;8.30;;;2.70;;
59512;SDS011;45330;51.634;5.562;2023-03-17T01:29:53;7.78;;;2.92;;
59512;SDS011;45330;51.634;5.562;2023-03-17T01:32:19;9.38;;;3.10;;
59512;SDS011;45330;51.634;5.562;2023-03-17T01:34:45;9.93;;;2.90;;
59512;SDS011;45330;51.634;5.562;2023-03-17T01:37:11;8.15;;;2.97;;
59512;SDS011;45330;51.634;5.562;2023-03-17T01:39:39;9.35;;;3.17;;
59512;SDS011;45330;51.634;5.562;2023-03-17T01:42:05;9.90;;;3.58;;
59512;SDS011;45330;51.634;5.562;2023-03-17T01:44:31;9.63;;;2.83;;
59512;SDS011;45330;51.634;5.562;2023-03-17T01:46:56;8.15;;;2.78;;
59512;SDS011;45330;51.634;5.562;2023-03-17T01:59:35;9.48;;;2.90;;
59512;SDS011;45330;51.634;5.562;2023-03-17T02:02:07;5.68;;;2.75;;
59512;SDS011;45330;51.634;5.562;2023-03-17T02:04:35;9.15;;;3.00;;
59512;SDS011;45330;51.634;5.562;2023-03-17T02:07:02;7.95;;;3.15;;
59512;SDS011;45330;51.634;5.562;2023-03-17T02:09:29;5.95;;;2.78;;
59512;SDS011;45330;51.634;5.562;2023-03-17T02:11:56;6.38;;;2.65;;
59512;SDS011;45330;51.634;5.562;2023-03-17T02:14:24;6.60;;;2.60;;
59512;SDS011;45330;51.634;5.562;2023-03-17T02:16:50;7.57;;;2.78;;
59512;SDS011;45330;51.634;5.562;2023-03-17T02:19:16;6.05;;;2.92;;
59512;SDS011;45330;51.634;5.562;2023-03-17T02:21:45;7.72;;;2.90;;
59512;SDS011;45330;51.634;5.562;2023-03-17T02:24:15;6.03;;;2.70;;
59512;SDS011;45330;51.634;5.562;2023-03-17T02:26:46;7.20;;;2.90;;
59512;SDS011;45330;51.634;5.562;2023-03-17T02:29:13;6.05;;;2.70;;
59512;SDS011;45330;51.634;5.562;2023-03-17T02:31:40;8.77;;;2.90;;
59512;SDS011;45330;51.634;5.562;2023-03-17T02:34:05;7.72;;;2.65;;
59512;SDS011;45330;51.634;5.562;2023-03-17T02:36:31;8.75;;;2.85;;
59512;SDS011;45330;51.634;5.562;2023-03-17T02:38:57;7.95;;;2.55;;
59512;SDS011;45330;51.634;5.562;2023-03-17T02:41:22;6.15;;;2.70;;
59512;SDS011;45330;51.634;5.562;2023-03-17T02:43:48;7.80;;;2.70;;
59512;SDS011;45330;51.634;5.562;2023-03-17T02:46:13;6.07;;;2.60;;
59512;SDS011;45330;51.634;5.562;2023-03-17T02:48:39;7.10;;;2.63;;
59512;SDS011;45330;51.634;5.562;2023-03-17T02:51:05;6.85;;;2.55;;
59512;SDS011;45330;51.634;5.562;2023-03-17T02:53:31;7.07;;;2.78;;
59512;SDS011;45330;51.634;5.562;2023-03-17T02:55:56;5.10;;;2.58;;
59512;SDS011;45330;51.634;5.562;2023-03-17T02:58:22;6.18;;;2.88;;
59512;SDS011;45330;51.634;5.562;2023-03-17T03:00:47;5.28;;;2.45;;
59512;SDS011;45330;51.634;5.562;2023-03-17T03:03:13;7.45;;;2.58;;
59512;SDS011;45330;51.634;5.562;2023-03-17T03:05:40;5.25;;;2.67;;
59512;SDS011;45330;51.634;5.562;2023-03-17T03:08:05;6.95;;;2.90;;
59512;SDS011;45330;51.634;5.562;2023-03-17T03:10:31;9.38;;;2.90;;
59512;SDS011;45330;51.634;5.562;2023-03-17T03:12:57;5.68;;;2.60;;
59512;SDS011;45330;51.634;5.562;2023-03-17T03:15:22;8.38;;;2.90;;
59512;SDS011;45330;51.634;5.562;2023-03-17T03:17:47;6.80;;;2.55;;
59512;SDS011;45330;51.634;5.562;2023-03-17T03:20:13;7.88;;;2.70;;
59512;SDS011;45330;51.634;5.562;2023-03-17T03:22:38;4.57;;;2.63;;
59512;SDS011;45330;51.634;5.562;2023-03-17T03:25:05;6.13;;;2.60;;
59512;SDS011;45330;51.634;5.562;2023-03-17T03:27:31;5.55;;;2.83;;
59512;SDS011;45330;51.634;5.562;2023-03-17T03:29:57;6.57;;;2.63;;
59512;SDS011;45330;51.634;5.562;2023-03-17T03:32:22;6.63;;;2.50;;
59512;SDS011;45330;51.634;5.562;2023-03-17T03:34:48;7.85;;;2.55;;
59512;SDS011;45330;51.634;5.562;2023-03-17T03:37:13;8.45;;;2.80;;
59512;SDS011;45330;51.634;5.562;2023-03-17T03:39:39;8.40;;;2.72;;
59512;SDS011;45330;51.634;5.562;2023-03-17T03:42:04;5.32;;;2.50;;
59512;SDS011;45330;51.634;5.562;2023-03-17T03:44:31;5.72;;;2.80;;
59512;SDS011;45330;51.634;5.562;2023-03-17T03:46:56;6.72;;;2.60;;
59512;SDS011;45330;51.634;5.562;2023-03-17T03:49:21;8.30;;;2.60;;
59512;SDS011;45330;51.634;5.562;2023-03-17T03:51:47;8.95;;;2.90;;
59512;SDS011;45330;51.634;5.562;2023-03-17T03:54:12;6.53;;;2.80;;
59512;SDS011;45330;51.634;5.562;2023-03-17T03:56:37;6.57;;;2.42;;
59512;SDS011;45330;51.634;5.562;2023-03-17T03:59:03;5.72;;;2.50;;
59512;SDS011;45330;51.634;5.562;2023-03-17T04:01:28;4.78;;;2.38;;
59512;SDS011;45330;51.634;5.562;2023-03-17T04:03:54;6.80;;;2.60;;
59512;SDS011;45330;51.634;5.562;2023-03-17T04:06:19;8.60;;;2.70;;
59512;SDS011;45330;51.634;5.562;2023-03-17T04:08:45;7.00;;;2.60;;
59512;SDS011;45330;51.634;5.562;2023-03-17T04:11:10;5.82;;;2.80;;
59512;SDS011;45330;51.634;5.562;2023-03-17T04:13:36;7.57;;;2.55;;
59512;SDS011;45330;51.634;5.562;2023-03-17T04:16:02;5.53;;;2.70;;
59512;SDS011;45330;51.634;5.562;2023-03-17T04:18:27;5.55;;;2.72;;
59512;SDS011;45330;51.634;5.562;2023-03-17T04:20:53;6.70;;;2.55;;
59512;SDS011;45330;51.634;5.562;2023-03-17T04:23:18;5.63;;;2.63;;
59512;SDS011;45330;51.634;5.562;2023-03-17T04:25:43;6.72;;;2.70;;
59512;SDS011;45330;51.634;5.562;2023-03-17T04:28:09;5.75;;;2.72;;
59512;SDS011;45330;51.634;5.562;2023-03-17T04:30:35;7.15;;;2.70;;
59512;SDS011;45330;51.634;5.562;2023-03-17T04:33:01;8.25;;;2.80;;
59512;SDS011;45330;51.634;5.562;2023-03-17T04:35:26;4.80;;;2.45;;
59512;SDS011;45330;51.634;5.562;2023-03-17T04:37:52;7.28;;;3.08;;
59512;SDS011;45330;51.634;5.562;2023-03-17T04:40:18;6.10;;;2.55;;
59512;SDS011;45330;51.634;5.562;2023-03-17T04:42:43;7.90;;;2.80;;
59512;SDS011;45330;51.634;5.562;2023-03-17T04:45:10;8.43;;;2.88;;
59512;SDS011;45330;51.634;5.562;2023-03-17T04:47:38;6.07;;;2.75;;
59512;SDS011;45330;51.634;5.562;2023-03-17T04:50:03;6.45;;;2.90;;
59512;SDS011;45330;51.634;5.562;2023-03-17T04:52:29;8.68;;;2.85;;
59512;SDS011;45330;51.634;5.562;2023-03-17T04:54:55;7.20;;;2.90;;
59512;SDS011;45330;51.634;5.562;2023-03-17T04:57:20;5.25;;;2.70;;
59512;SDS011;45330;51.634;5.562;2023-03-17T04:59:46;7.80;;;3.00;;
59512;SDS011;45330;51.634;5.562;2023-03-17T05:02:11;5.55;;;2.92;;
59512;SDS011;45330;51.634;5.562;2023-03-17T05:04:37;6.50;;;2.90;;
59512;SDS011;45330;51.634;5.562;2023-03-17T05:07:02;6.57;;;2.83;;
59512;SDS011;45330;51.634;5.562;2023-03-17T05:09:28;7.90;;;2.90;;
59512;SDS011;45330;51.634;5.562;2023-03-17T05:11:54;7.43;;;2.80;;
59512;SDS011;45330;51.634;5.562;2023-03-17T05:14:19;6.15;;;2.83;;
59512;SDS011;45330;51.634;5.562;2023-03-17T05:16:48;7.25;;;3.05;;
59512;SDS011;45330;51.634;5.562;2023-03-17T05:19:14;7.05;;;2.90;;
59512;SDS011;45330;51.634;5.562;2023-03-17T05:21:40;7.32;;;3.00;;
59512;SDS011;45330;51.634;5.562;2023-03-17T05:24:06;6.45;;;2.78;;
59512;SDS011;45330;51.634;5.562;2023-03-17T05:26:32;6.90;;;2.70;;
59512;SDS011;45330;51.634;5.562;2023-03-17T05:28:58;8.05;;;2.85;;
59512;SDS011;45330;51.634;5.562;2023-03-17T05:31:23;6.55;;;2.85;;
59512;SDS011;45330;51.634;5.562;2023-03-17T05:33:49;7.18;;;2.90;;
59512;SDS011;45330;51.634;5.562;2023-03-17T05:36:15;10.73;;;3.10;;
59512;SDS011;45330;51.634;5.562;2023-03-17T05:38:40;9.18;;;3.05;;
59512;SDS011;45330;51.634;5.562;2023-03-17T05:41:06;11.00;;;3.25;;
59512;SDS011;45330;51.634;5.562;2023-03-17T05:43:32;8.68;;;3.20;;
59512;SDS011;45330;51.634;5.562;2023-03-17T05:45:57;7.68;;;2.90;;
59512;SDS011;45330;51.634;5.562;2023-03-17T05:48:23;9.52;;;3.15;;
59512;SDS011;45330;51.634;5.562;2023-03-17T05:50:50;6.32;;;2.85;;
59512;SDS011;45330;51.634;5.562;2023-03-17T05:53:16;7.20;;;2.90;;
59512;SDS011;45330;51.634;5.562;2023-03-17T05:55:41;9.75;;;3.10;;
59512;SDS011;45330;51.634;5.562;2023-03-17T05:58:07;8.68;;;2.95;;
59512;SDS011;45330;51.634;5.562;2023-03-17T06:00:33;10.48;;;3.33;;
59512;SDS011;45330;51.634;5.562;2023-03-17T06:02:59;9.50;;;3.05;;
59512;SDS011;45330;51.634;5.562;2023-03-17T06:05:26;7.03;;;3.00;;
59512;SDS011;45330;51.634;5.562;2023-03-17T06:07:52;6.80;;;3.00;;
59512;SDS011;45330;51.634;5.562;2023-03-17T06:10:17;8.98;;;3.10;;
59512;SDS011;45330;51.634;5.562;2023-03-17T06:12:43;7.53;;;3.00;;
59512;SDS011;45330;51.634;5.562;2023-03-17T06:15:08;9.90;;;3.22;;
59512;SDS011;45330;51.634;5.562;2023-03-17T06:17:34;8.75;;;3.25;;
59512;SDS011;45330;51.634;5.562;2023-03-17T06:20:00;8.65;;;3.53;;
59512;SDS011;45330;51.634;5.562;2023-03-17T06:22:26;10.23;;;3.55;;
59512;SDS011;45330;51.634;5.562;2023-03-17T06:24:51;7.78;;;3.30;;
59512;SDS011;45330;51.634;5.562;2023-03-17T06:27:17;8.05;;;3.38;;
59512;SDS011;45330;51.634;5.562;2023-03-17T06:29:43;8.82;;;3.10;;
59512;SDS011;45330;51.634;5.562;2023-03-17T06:32:09;8.00;;;3.00;;
59512;SDS011;45330;51.634;5.562;2023-03-17T06:34:35;10.32;;;3.22;;
59512;SDS011;45330;51.634;5.562;2023-03-17T06:37:00;10.77;;;3.22;;
59512;SDS011;45330;51.634;5.562;2023-03-17T06:39:25;9.70;;;3.08;;
59512;SDS011;45330;51.634;5.562;2023-03-17T06:41:51;7.15;;;3.17;;
59512;SDS011;45330;51.634;5.562;2023-03-17T06:44:17;6.32;;;3.05;;
59512;SDS011;45330;51.634;5.562;2023-03-17T06:46:43;8.55;;;3.10;;
59512;SDS011;45330;51.634;5.562;2023-03-17T06:49:08;9.63;;;3.22;;
59512;SDS011;45330;51.634;5.562;2023-03-17T06:51:37;9.50;;;3.15;;
59512;SDS011;45330;51.634;5.562;2023-03-17T06:54:03;8.45;;;3.20;;
59512;SDS011;45330;51.634;5.562;2023-03-17T06:56:29;7.88;;;3.40;;
59512;SDS011;45330;51.634;5.562;2023-03-17T06:58:54;10.27;;;3.40;;
59512;SDS011;45330;51.634;5.562;2023-03-17T07:01:19;9.20;;;3.53;;
59512;SDS011;45330;51.634;5.562;2023-03-17T07:03:46;10.00;;;3.20;;
59512;SDS011;45330;51.634;5.562;2023-03-17T07:06:11;7.75;;;3.33;;
59512;SDS011;45330;51.634;5.562;2023-03-17T07:08:37;9.88;;;3.40;;
59512;SDS011;45330;51.634;5.562;2023-03-17T07:11:03;9.77;;;3.15;;
59512;SDS011;45330;51.634;5.562;2023-03-17T07:13:28;12.50;;;3.97;;
59512;SDS011;45330;51.634;5.562;2023-03-17T07:15:59;8.27;;;3.03;;
59512;SDS011;45330;51.634;5.562;2023-03-17T07:18:25;11.77;;;3.70;;
59512;SDS011;45330;51.634;5.562;2023-03-17T07:20:50;9.25;;;2.97;;
59512;SDS011;45330;51.634;5.562;2023-03-17T07:23:18;11.50;;;3.50;;
59512;SDS011;45330;51.634;5.562;2023-03-17T07:25:45;10.23;;;3.63;;
59512;SDS011;45330;51.634;5.562;2023-03-17T07:28:11;9.43;;;3.53;;
59512;SDS011;45330;51.634;5.562;2023-03-17T07:30:37;7.80;;;3.20;;
59512;SDS011;45330;51.634;5.562;2023-03-17T07:33:04;9.55;;;3.50;;
59512;SDS011;45330;51.634;5.562;2023-03-17T07:35:29;13.15;;;3.90;;
59512;SDS011;45330;51.634;5.562;2023-03-17T07:37:57;11.30;;;3.30;;
59512;SDS011;45330;51.634;5.562;2023-03-17T07:40:22;11.43;;;3.60;;
59512;SDS011;45330;51.634;5.562;2023-03-17T07:42:48;10.20;;;3.60;;
59512;SDS011;45330;51.634;5.562;2023-03-17T07:45:14;8.25;;;3.38;;
59512;SDS011;45330;51.634;5.562;2023-03-17T07:47:39;11.88;;;4.30;;
59512;SDS011;45330;51.634;5.562;2023-03-17T07:50:05;9.85;;;3.92;;
59512;SDS011;45330;51.634;5.562;2023-03-17T07:52:31;11.18;;;3.88;;
59512;SDS011;45330;51.634;5.562;2023-03-17T07:54:58;9.50;;;3.55;;
59512;SDS011;45330;51.634;5.562;2023-03-17T07:57:23;8.63;;;3.70;;
59512;SDS011;45330;51.634;5.562;2023-03-17T07:59:49;12.18;;;3.50;;
59512;SDS011;45330;51.634;5.562;2023-03-17T08:02:15;9.25;;;3.80;;
59512;SDS011;45330;51.634;5.562;2023-03-17T08:04:42;11.55;;;3.63;;
59512;SDS011;45330;51.634;5.562;2023-03-17T08:07:08;12.57;;;3.60;;
59512;SDS011;45330;51.634;5.562;2023-03-17T08:09:34;13.57;;;4.15;;
59512;SDS011;45330;51.634;5.562;2023-03-17T08:12:01;13.27;;;4.00;;
59512;SDS011;45330;51.634;5.562;2023-03-17T08:14:28;13.63;;;4.40;;
59512;SDS011;45330;51.634;5.562;2023-03-17T08:16:53;11.50;;;3.78;;
59512;SDS011;45330;51.634;5.562;2023-03-17T08:19:19;9.27;;;3.60;;
59512;SDS011;45330;51.634;5.562;2023-03-17T08:21:46;12.45;;;3.78;;
59512;SDS011;45330;51.634;5.562;2023-03-17T08:24:12;10.52;;;3.60;;
59512;SDS011;45330;51.634;5.562;2023-03-17T08:26:37;10.70;;;3.70;;
59512;SDS011;45330;51.634;5.562;2023-03-17T08:29:03;10.63;;;3.47;;
59512;SDS011;45330;51.634;5.562;2023-03-17T08:31:32;12.60;;;4.15;;
59512;SDS011;45330;51.634;5.562;2023-03-17T08:33:58;10.82;;;3.88;;
59512;SDS011;45330;51.634;5.562;2023-03-17T08:36:24;11.02;;;3.72;;
59512;SDS011;45330;51.634;5.562;2023-03-17T08:38:50;11.15;;;3.60;;
59512;SDS011;45330;51.634;5.562;2023-03-17T08:41:16;10.40;;;3.63;;
59512;SDS011;45330;51.634;5.562;2023-03-17T08:43:44;11.43;;;3.75;;
59512;SDS011;45330;51.634;5.562;2023-03-17T08:46:14;15.73;;;3.80;;
59512;SDS011;45330;51.634;5.562;2023-03-17T08:48:42;15.20;;;4.18;;
59512;SDS011;45330;51.634;5.562;2023-03-17T08:51:09;11.70;;;3.95;;
59512;SDS011;45330;51.634;5.562;2023-03-17T08:53:35;13.90;;;3.90;;
59512;SDS011;45330;51.634;5.562;2023-03-17T08:56:01;10.88;;;3.60;;
59512;SDS011;45330;51.634;5.562;2023-03-17T08:58:28;12.18;;;3.95;;
59512;SDS011;45330;51.634;5.562;2023-03-17T09:00:57;9.85;;;3.90;;
59512;SDS011;45330;51.634;5.562;2023-03-17T09:03:24;11.95;;;3.85;;
59512;SDS011;45330;51.634;5.562;2023-03-17T09:05:50;13.65;;;3.85;;
59512;SDS011;45330;51.634;5.562;2023-03-17T09:08:16;13.75;;;4.03;;
59512;SDS011;45330;51.634;5.562;2023-03-17T09:10:41;14.90;;;4.10;;
59512;SDS011;45330;51.634;5.562;2023-03-17T09:13:07;10.75;;;3.70;;
59512;SDS011;45330;51.634;5.562;2023-03-17T09:15:33;11.52;;;3.97;;
59512;SDS011;45330;51.634;5.562;2023-03-17T09:17:58;15.60;;;3.95;;
59512;SDS011;45330;51.634;5.562;2023-03-17T09:20:25;10.57;;;3.90;;
59512;SDS011;45330;51.634;5.562;2023-03-17T09:22:51;12.63;;;3.85;;
59512;SDS011;45330;51.634;5.562;2023-03-17T09:25:16;12.52;;;4.28;;
59512;SDS011;45330;51.634;5.562;2023-03-17T09:27:42;11.95;;;3.55;;
59512;SDS011;45330;51.634;5.562;2023-03-17T09:30:09;11.13;;;3.67;;
59512;SDS011;45330;51.634;5.562;2023-03-17T09:32:37;11.07;;;3.65;;
59512;SDS011;45330;51.634;5.562;2023-03-17T09:35:03;10.15;;;3.80;;
59512;SDS011;45330;51.634;5.562;2023-03-17T09:37:29;10.35;;;3.67;;
59512;SDS011;45330;51.634;5.562;2023-03-17T09:39:55;11.45;;;3.78;;
59512;SDS011;45330;51.634;5.562;2023-03-17T09:47:54;9.80;;;4.00;;
59512;SDS011;45330;51.634;5.562;2023-03-17T09:53:30;10.75;;;3.75;;
59512;SDS011;45330;51.634;5.562;2023-03-17T09:56:06;14.63;;;4.25;;
59512;SDS011;45330;51.634;5.562;2023-03-17T09:58:36;11.93;;;3.47;;
59512;SDS011;45330;51.634;5.562;2023-03-17T10:01:03;10.57;;;3.88;;
59512;SDS011;45330;51.634;5.562;2023-03-17T10:03:29;9.55;;;3.72;;
59512;SDS011;45330;51.634;5.562;2023-03-17T10:06:16;12.18;;;3.47;;
59512;SDS011;45330;51.634;5.562;2023-03-17T10:09:03;10.10;;;3.72;;
59512;SDS011;45330;51.634;5.562;2023-03-17T10:11:38;12.23;;;4.22;;
59512;SDS011;45330;51.634;5.562;2023-03-17T10:19:21;11.50;;;4.07;;
59512;SDS011;45330;51.634;5.562;2023-03-17T10:22:12;11.02;;;4.00;;
59512;SDS011;45330;51.634;5.562;2023-03-17T10:25:00;12.10;;;4.25;;
59512;SDS011;45330;51.634;5.562;2023-03-17T10:27:29;13.82;;;4.05;;
59512;SDS011;45330;51.634;5.562;2023-03-17T10:29:59;13.00;;;3.90;;
59512;SDS011;45330;51.634;5.562;2023-03-17T10:32:24;13.27;;;4.15;;
59512;SDS011;45330;51.634;5.562;2023-03-17T10:34:51;15.63;;;4.72;;
59512;SDS011;45330;51.634;5.562;2023-03-17T10:37:22;11.85;;;4.18;;
59512;SDS011;45330;51.634;5.562;2023-03-17T10:39:49;20.77;;;5.80;;
59512;SDS011;45330;51.634;5.562;2023-03-17T10:42:23;14.88;;;4.10;;
59512;SDS011;45330;51.634;5.562;2023-03-17T10:44:57;13.18;;;4.00;;
59512;SDS011;45330;51.634;5.562;2023-03-17T10:47:32;14.20;;;4.20;;
59512;SDS011;45330;51.634;5.562;2023-03-17T10:52:42;12.07;;;4.25;;
59512;SDS011;45330;51.634;5.562;2023-03-17T10:55:13;14.07;;;4.82;;
59512;SDS011;45330;51.634;5.562;2023-03-17T10:57:41;17.45;;;5.22;;
59512;SDS011;45330;51.634;5.562;2023-03-17T11:00:26;15.13;;;4.60;;
59512;SDS011;45330;51.634;5.562;2023-03-17T11:02:57;14.57;;;4.45;;
59512;SDS011;45330;51.634;5.562;2023-03-17T11:05:27;12.65;;;3.97;;
59512;SDS011;45330;51.634;5.562;2023-03-17T11:07:57;13.90;;;4.18;;
59512;SDS011;45330;51.634;5.562;2023-03-17T11:10:34;11.57;;;3.83;;
59512;SDS011;45330;51.634;5.562;2023-03-17T11:13:02;12.40;;;3.88;;
59512;SDS011;45330;51.634;5.562;2023-03-17T11:15:33;12.82;;;4.05;;
59512;SDS011;45330;51.634;5.562;2023-03-17T11:18:02;11.40;;;3.40;;
59512;SDS011;45330;51.634;5.562;2023-03-17T11:26:37;9.98;;;3.80;;
59512;SDS011;45330;51.634;5.562;2023-03-17T11:31:37;12.20;;;3.83;;
59512;SDS011;45330;51.634;5.562;2023-03-17T11:34:56;11.90;;;4.00;;
59512;SDS011;45330;51.634;5.562;2023-03-17T11:37:06;8.93;;;3.53;;
59512;SDS011;45330;51.634;5.562;2023-03-17T11:39:56;11.95;;;3.90;;
59512;SDS011;45330;51.634;5.562;2023-03-17T11:43:06;13.05;;;3.85;;
59512;SDS011;45330;51.634;5.562;2023-03-17T11:45:51;12.32;;;3.80;;
59512;SDS011;45330;51.634;5.562;2023-03-17T11:56:37;13.07;;;3.80;;
59512;SDS011;45330;51.634;5.562;2023-03-17T11:59:14;10.10;;;3.58;;
59512;SDS011;45330;51.634;5.562;2023-03-17T12:05:20;11.07;;;3.47;;
59512;SDS011;45330;51.634;5.562;2023-03-17T12:07:45;11.38;;;3.75;;
59512;SDS011;45330;51.634;5.562;2023-03-17T12:10:19;11.13;;;3.40;;
59512;SDS011;45330;51.634;5.562;2023-03-17T12:12:54;12.30;;;4.07;;
59512;SDS011;45330;51.634;5.562;2023-03-17T12:20:52;13.85;;;4.10;;
59512;SDS011;45330;51.634;5.562;2023-03-17T12:23:23;13.30;;;4.30;;
59512;SDS011;45330;51.634;5.562;2023-03-17T12:28:59;10.83;;;3.80;;
59512;SDS011;45330;51.634;5.562;2023-03-17T12:31:31;10.15;;;3.72;;
59512;SDS011;45330;51.634;5.562;2023-03-17T12:34:03;12.25;;;3.80;;
59512;SDS011;45330;51.634;5.562;2023-03-17T12:36:34;9.73;;;3.55;;
59512;SDS011;45330;51.634;5.562;2023-03-17T12:39:13;8.93;;;3.72;;
59512;SDS011;45330;51.634;5.562;2023-03-17T12:47:29;11.10;;;3.80;;
59512;SDS011;45330;51.634;5.562;2023-03-17T12:53:23;14.93;;;4.38;;
59512;SDS011;45330;51.634;5.562;2023-03-17T12:55:55;12.43;;;4.23;;
59512;SDS011;45330;51.634;5.562;2023-03-17T13:03:32;13.32;;;4.40;;
59512;SDS011;45330;51.634;5.562;2023-03-17T13:06:04;12.43;;;4.30;;
59512;SDS011;45330;51.634;5.562;2023-03-17T13:08:39;15.88;;;4.72;;
59512;SDS011;45330;51.634;5.562;2023-03-17T13:11:12;11.32;;;3.83;;
59512;SDS011;45330;51.634;5.562;2023-03-17T13:14:38;11.38;;;3.70;;
59512;SDS011;45330;51.634;5.562;2023-03-17T13:33:17;12.00;;;4.40;;
59512;SDS011;45330;51.634;5.562;2023-03-17T13:49:00;14.80;;;4.18;;
59512;SDS011;45330;51.634;5.562;2023-03-17T13:51:31;14.40;;;4.60;;
59512;SDS011;45330;51.634;5.562;2023-03-17T13:56:46;13.20;;;4.40;;
59512;SDS011;45330;51.634;5.562;2023-03-17T13:59:14;12.20;;;4.32;;
59512;SDS011;45330;51.634;5.562;2023-03-17T14:01:53;10.55;;;4.18;;
59512;SDS011;45330;51.634;5.562;2023-03-17T14:04:25;13.60;;;4.35;;
59512;SDS011;45330;51.634;5.562;2023-03-17T14:06:54;15.63;;;4.85;;
59512;SDS011;45330;51.634;5.562;2023-03-17T14:09:31;17.57;;;5.40;;
59512;SDS011;45330;51.634;5.562;2023-03-17T14:12:03;15.05;;;5.20;;
59512;SDS011;45330;51.634;5.562;2023-03-17T14:14:49;14.15;;;5.40;;
59512;SDS011;45330;51.634;5.562;2023-03-17T14:17:24;15.70;;;5.53;;
59512;SDS011;45330;51.634;5.562;2023-03-17T14:20:03;15.73;;;5.45;;
59512;SDS011;45330;51.634;5.562;2023-03-17T14:22:32;13.70;;;5.03;;
59512;SDS011;45330;51.634;5.562;2023-03-17T14:25:04;16.55;;;5.65;;
59512;SDS011;45330;51.634;5.562;2023-03-17T14:27:32;15.10;;;4.93;;
59512;SDS011;45330;51.634;5.562;2023-03-17T14:30:08;15.05;;;5.47;;
59512;SDS011;45330;51.634;5.562;2023-03-17T14:35:37;14.48;;;4.97;;
59512;SDS011;45330;51.634;5.562;2023-03-17T14:40:43;17.38;;;5.70;;
59512;SDS011;45330;51.634;5.562;2023-03-17T14:43:09;16.17;;;5.63;;
59512;SDS011;45330;51.634;5.562;2023-03-17T14:48:11;13.40;;;5.03;;
59512;SDS011;45330;51.634;5.562;2023-03-17T14:50:45;17.33;;;5.82;;
59512;SDS011;45330;51.634;5.562;2023-03-17T14:53:15;12.85;;;5.28;;
59512;SDS011;45330;51.634;5.562;2023-03-17T14:55:40;12.68;;;5.32;;
59512;SDS011;45330;51.634;5.562;2023-03-17T14:58:07;14.23;;;5.32;;
59512;SDS011;45330;51.634;5.562;2023-03-17T15:00:44;14.82;;;5.43;;
59512;SDS011;45330;51.634;5.562;2023-03-17T15:03:21;15.57;;;5.40;;
59512;SDS011;45330;51.634;5.562;2023-03-17T15:05:48;17.70;;;4.97;;
59512;SDS011;45330;51.634;5.562;2023-03-17T15:14:20;12.90;;;4.70;;
59512;SDS011;45330;51.634;5.562;2023-03-17T15:16:52;14.18;;;4.55;;
59512;SDS011;45330;51.634;5.562;2023-03-17T15:19:30;13.00;;;4.50;;
59512;SDS011;45330;51.634;5.562;2023-03-17T15:22:17;13.48;;;4.15;;
59512;SDS011;45330;51.634;5.562;2023-03-17T15:24:49;14.90;;;4.65;;
59512;SDS011;45330;51.634;5.562;2023-03-17T15:27:22;14.77;;;4.40;;
59512;SDS011;45330;51.634;5.562;2023-03-17T15:29:47;14.98;;;4.45;;
59512;SDS011;45330;51.634;5.562;2023-03-17T15:32:16;14.00;;;4.10;;
59512;SDS011;45330;51.634;5.562;2023-03-17T15:34:44;12.93;;;4.40;;
59512;SDS011;45330;51.634;5.562;2023-03-17T15:39:45;13.80;;;4.28;;
59512;SDS011;45330;51.634;5.562;2023-03-17T15:42:11;14.18;;;4.60;;
59512;SDS011;45330;51.634;5.562;2023-03-17T15:44:37;13.88;;;4.68;;
59512;SDS011;45330;51.634;5.562;2023-03-17T15:47:02;13.95;;;4.38;;
59512;SDS011;45330;51.634;5.562;2023-03-17T15:49:28;11.82;;;3.80;;
59512;SDS011;45330;51.634;5.562;2023-03-17T15:51:54;14.77;;;4.30;;
59512;SDS011;45330;51.634;5.562;2023-03-17T15:54:19;14.63;;;4.30;;
59512;SDS011;45330;51.634;5.562;2023-03-17T15:56:45;14.82;;;4.57;;
59512;SDS011;45330;51.634;5.562;2023-03-17T15:59:10;14.60;;;4.40;;
59512;SDS011;45330;51.634;5.562;2023-03-17T16:01:36;12.95;;;4.10;;
59512;SDS011;45330;51.634;5.562;2023-03-17T16:04:06;16.83;;;4.53;;
59512;SDS011;45330;51.634;5.562;2023-03-17T16:06:33;15.63;;;4.32;;
59512;SDS011;45330;51.634;5.562;2023-03-17T16:08:59;13.88;;;4.35;;
59512;SDS011;45330;51.634;5.562;2023-03-17T16:11:25;13.13;;;4.30;;
59512;SDS011;45330;51.634;5.562;2023-03-17T16:13:54;12.75;;;3.83;;
59512;SDS011;45330;51.634;5.562;2023-03-17T16:16:24;12.93;;;4.03;;
59512;SDS011;45330;51.634;5.562;2023-03-17T16:18:53;12.18;;;3.88;;
59512;SDS011;45330;51.634;5.562;2023-03-17T16:21:19;12.10;;;3.90;;
59512;SDS011;45330;51.634;5.562;2023-03-17T16:23:45;12.45;;;4.07;;
59512;SDS011;45330;51.634;5.562;2023-03-17T16:26:12;12.63;;;4.10;;
59512;SDS011;45330;51.634;5.562;2023-03-17T16:28:38;13.48;;;3.78;;
59512;SDS011;45330;51.634;5.562;2023-03-17T16:33:53;13.27;;;3.92;;
59512;SDS011;45330;51.634;5.562;2023-03-17T16:36:20;13.90;;;4.00;;
59512;SDS011;45330;51.634;5.562;2023-03-17T16:38:47;12.57;;;4.18;;
59512;SDS011;45330;51.634;5.562;2023-03-17T16:41:23;14.10;;;4.50;;
59512;SDS011;45330;51.634;5.562;2023-03-17T16:44:00;14.27;;;4.00;;
59512;SDS011;45330;51.634;5.562;2023-03-17T16:46:27;13.93;;;4.15;;
59512;SDS011;45330;51.634;5.562;2023-03-17T16:48:56;14.57;;;4.07;;
59512;SDS011;45330;51.634;5.562;2023-03-17T16:51:22;14.40;;;4.35;;
59512;SDS011;45330;51.634;5.562;2023-03-17T16:53:48;12.40;;;3.80;;